Terminal Aerodrome Forecast
Issued by NWS

Home | Current Version | Previous Version | Text Only | Print | Product List | Glossary On
Versions: 1 2 3 4 5 6 7 8 9 10 11 12 13
000
FTUS45 KREV 230536
TAFRNO
TAF
KRNO 230536Z 2306/2406 VRB04KT P6SM FEW150
     FM231700 32010KT P6SM FEW080 SCT200
     FM240000 26011G16KT P6SM SCT100 BKN200=

USA.gov is the U.S. government's official web portal to all federal, state and local government web resources and services.